createdAt,value
2019-03-31T00:00:09.065Z,99390.20
2019-03-31T00:02:38.447Z,99390.53
2019-03-31T00:05:07.775Z,99387.08
2019-03-31T00:07:37.130Z,99388.23
2019-03-31T00:10:08.247Z,99388.11
2019-03-31T00:12:37.574Z,99384.78
2019-03-31T00:15:08.153Z,99381.55
2019-03-31T00:17:37.516Z,99389.22
2019-03-31T00:20:07.316Z,99382.59
2019-03-31T00:22:36.653Z,99381.95
2019-03-31T00:25:06.887Z,99383.13
2019-03-31T00:27:36.254Z,99385.75
2019-03-31T00:30:06.661Z,99381.13
2019-03-31T00:32:36.047Z,99384.22
2019-03-31T00:35:06.020Z,99378.59
2019-03-31T00:37:35.398Z,99380.59
2019-03-31T00:40:06.866Z,99386.02
2019-03-31T00:42:36.267Z,99385.55
2019-03-31T00:45:10.240Z,99386.41
2019-03-31T00:47:39.574Z,99386.67
2019-03-31T00:50:08.937Z,99379.96
2019-03-31T00:52:38.293Z,99379.22
2019-03-31T00:55:08.281Z,99378.06
2019-03-31T00:57:37.999Z,99372.91
2019-03-31T01:00:12.769Z,99377.81
2019-03-31T01:02:42.201Z,99372.45
2019-03-31T01:05:11.538Z,99369.69
2019-03-31T01:07:41.502Z,99374.28
2019-03-31T01:10:11.122Z,99367.78
2019-03-31T01:12:40.526Z,99367.78
2019-03-31T01:15:11.645Z,99369.60
2019-03-31T01:17:40.992Z,99369.03
2019-03-31T01:20:10.604Z,99366.45
2019-03-31T01:22:39.965Z,99363.76
2019-03-31T01:25:09.781Z,99365.58
2019-03-31T01:27:39.254Z,99364.23
2019-03-31T01:30:10.296Z,99363.97
2019-03-31T01:32:39.998Z,99365.41
2019-03-31T01:35:11.009Z,99362.89
2019-03-31T01:37:40.357Z,99364.83
2019-03-31T01:40:09.710Z,99369.72
2019-03-31T01:42:39.041Z,99364.75
2019-03-31T01:45:08.718Z,99370.97
2019-03-31T01:47:38.078Z,99375.26
2019-03-31T01:50:11.818Z,99374.13
2019-03-31T01:52:41.202Z,99375.77
2019-03-31T01:55:10.873Z,99375.55
2019-03-31T01:57:40.206Z,99374.41
2019-03-31T02:00:11.473Z,99374.55
2019-03-31T02:02:42.326Z,99376.48
2019-03-31T02:05:11.743Z,99378.20
2019-03-31T02:07:41.083Z,99374.09
2019-03-31T02:10:10.426Z,99381.75
2019-03-31T02:12:39.773Z,99377.73
2019-03-31T02:15:09.184Z,99373.60
2019-03-31T02:17:38.552Z,99373.48
2019-03-31T02:20:08.082Z,99380.19
2019-03-31T02:22:37.422Z,99373.30
2019-03-31T02:25:07.527Z,99374.34
2019-03-31T02:27:36.889Z,99375.13
2019-03-31T02:30:08.269Z,99369.84
2019-03-31T02:32:37.605Z,99367.64
2019-03-31T02:35:07.296Z,99374.92
2019-03-31T02:37:36.636Z,99374.19
2019-03-31T02:40:06.547Z,99370.91
2019-03-31T02:42:35.942Z,99375.84
2019-03-31T02:45:08.105Z,99369.78
2019-03-31T02:47:36.732Z,99368.51
2019-03-31T02:50:07.289Z,99364.29
2019-03-31T02:52:36.632Z,99362.08
2019-03-31T02:55:06.965Z,99366.98
2019-03-31T02:57:36.479Z,99368.33
2019-03-31T03:00:07.469Z,99363.14
2019-03-31T03:02:41.997Z,99360.09
2019-03-31T03:05:18.386Z,99357.59
2019-03-31T03:07:39.689Z,99357.67
2019-03-31T03:10:09.899Z,99357.88
2019-03-31T03:12:40.826Z,99355.84
2019-03-31T03:15:10.197Z,99354.39
2019-03-31T03:17:39.554Z,99348.63
2019-03-31T03:20:08.939Z,99349.95
2019-03-31T03:22:38.290Z,99348.72
2019-03-31T03:25:07.621Z,99345.87
2019-03-31T03:27:36.986Z,99348.08
2019-03-31T03:30:07.752Z,99339.65
2019-03-31T03:32:37.426Z,99334.84
2019-03-31T03:35:06.812Z,99336.16
2019-03-31T03:37:36.248Z,99328.99
2019-03-31T03:40:07.246Z,99335.97
2019-03-31T03:42:36.600Z,99338.06
2019-03-31T03:45:07.455Z,99344.15
2019-03-31T03:47:36.798Z,99346.16
2019-03-31T03:50:08.902Z,99346.63
2019-03-31T03:52:37.542Z,99352.58
2019-03-31T03:55:06.909Z,99347.27
2019-03-31T03:57:36.280Z,99349.44
2019-03-31T04:00:06.430Z,99347.23
2019-03-31T04:02:35.765Z,99348.09
2019-03-31T04:05:06.254Z,99343.53
2019-03-31T04:07:35.608Z,99349.23
2019-03-31T04:10:08.640Z,99346.25
2019-03-31T04:12:37.996Z,99346.36
2019-03-31T04:15:07.421Z,99346.52
2019-03-31T04:17:36.772Z,99350.03
2019-03-31T04:20:06.686Z,99350.89
2019-03-31T04:22:36.069Z,99347.07
2019-03-31T04:25:05.737Z,99353.37
2019-03-31T04:27:35.076Z,99345.50
2019-03-31T04:30:04.906Z,99344.55
2019-03-31T04:32:38.567Z,99351.09
2019-03-31T04:35:05.366Z,99357.30
2019-03-31T04:37:34.711Z,99350.46
2019-03-31T04:40:05.882Z,99350.61
2019-03-31T04:42:35.229Z,99352.21
2019-03-31T04:45:06.007Z,99347.13
2019-03-31T04:47:35.377Z,99342.53
2019-03-31T04:50:04.797Z,99354.21
2019-03-31T04:52:34.207Z,99353.11
2019-03-31T04:55:03.562Z,99352.35
2019-03-31T04:57:32.912Z,99347.95
2019-03-31T05:00:02.290Z,99349.55
2019-03-31T05:02:31.635Z,99352.22
2019-03-31T05:05:00.993Z,99357.26
2019-03-31T05:07:30.342Z,99355.00
2019-03-31T05:09:59.783Z,99359.61
2019-03-31T05:12:29.159Z,99356.86
2019-03-31T05:14:58.504Z,99352.80
2019-03-31T05:17:27.830Z,99351.25
2019-03-31T05:19:57.183Z,99352.86
2019-03-31T05:22:26.523Z,99353.17
2019-03-31T05:24:55.905Z,99357.26
2019-03-31T05:27:25.295Z,99361.16
2019-03-31T05:29:54.673Z,99357.92
2019-03-31T05:32:24.038Z,99355.13
2019-03-31T05:34:53.363Z,99356.66
2019-03-31T05:37:22.748Z,99352.50
2019-03-31T05:39:52.076Z,99353.67
2019-03-31T05:42:21.456Z,99357.89
2019-03-31T05:44:50.820Z,99363.14
2019-03-31T05:47:20.317Z,99362.33
2019-03-31T05:49:49.725Z,99358.75
2019-03-31T05:52:19.070Z,99365.66
2019-03-31T05:54:48.407Z,99363.25
2019-03-31T05:57:17.765Z,99369.36
2019-03-31T05:59:47.389Z,99368.85
2019-03-31T06:02:17.153Z,99371.51
2019-03-31T06:04:46.489Z,99371.50
2019-03-31T06:07:15.875Z,99368.55
2019-03-31T06:09:45.226Z,99378.82
2019-03-31T06:12:14.574Z,99377.26
2019-03-31T06:14:43.944Z,99377.87
2019-03-31T06:17:13.284Z,99381.58
2019-03-31T06:19:42.652Z,99379.30
2019-03-31T06:22:12.062Z,99386.39
2019-03-31T06:24:41.430Z,99378.09
2019-03-31T06:27:11.538Z,99382.97
2019-03-31T06:29:40.887Z,99382.41
2019-03-31T06:32:10.253Z,99386.63
2019-03-31T06:34:47.363Z,99386.82
2019-03-31T06:37:10.668Z,99383.75
2019-03-31T06:39:40.046Z,99386.48
2019-03-31T06:42:09.390Z,99386.75
2019-03-31T06:44:38.761Z,99392.31
2019-03-31T06:47:08.090Z,99388.00
2019-03-31T06:49:37.432Z,99387.83
2019-03-31T06:52:08.190Z,99392.02
2019-03-31T06:54:37.542Z,99392.50
2019-03-31T06:57:06.909Z,99391.55
2019-03-31T06:59:36.240Z,99389.90
2019-03-31T07:02:05.955Z,99395.12
2019-03-31T07:04:35.319Z,99395.75
2019-03-31T07:07:04.653Z,99395.98
2019-03-31T07:09:34.029Z,99398.14
2019-03-31T07:12:03.388Z,99396.84
2019-03-31T07:14:32.721Z,99402.27
2019-03-31T07:17:02.158Z,99403.16
2019-03-31T07:19:31.477Z,99397.52
2019-03-31T07:22:00.844Z,99395.37
2019-03-31T07:24:30.190Z,99388.31
2019-03-31T07:26:59.522Z,99390.77
2019-03-31T07:29:28.877Z,99394.34
2019-03-31T07:31:58.222Z,99395.57
2019-03-31T07:34:27.600Z,99397.59
2019-03-31T07:36:56.966Z,99393.30
2019-03-31T07:39:26.464Z,99394.59
2019-03-31T07:41:56.073Z,99398.08
2019-03-31T07:44:25.461Z,99397.63
2019-03-31T07:46:54.849Z,99397.98
2019-03-31T07:49:24.263Z,99396.55
2019-03-31T07:51:53.621Z,99397.00
2019-03-31T07:54:23.406Z,99400.39
2019-03-31T07:56:53.176Z,99398.26
2019-03-31T07:59:22.767Z,99396.36
2019-03-31T08:01:53.746Z,99398.12
2019-03-31T08:04:23.104Z,99395.11
2019-03-31T08:06:52.471Z,99396.72
2019-03-31T08:09:21.842Z,99398.72
2019-03-31T08:12:10.686Z,99391.98
2019-03-31T08:14:40.116Z,99398.37
2019-03-31T08:17:09.464Z,99394.95
2019-03-31T08:19:38.845Z,99403.66
2019-03-31T08:22:08.207Z,99401.44
2019-03-31T08:24:42.048Z,99403.30
2019-03-31T08:27:13.402Z,99403.44
2019-03-31T08:29:44.406Z,99410.80
2019-03-31T08:32:14.347Z,99411.98
2019-03-31T08:34:43.733Z,99406.79
2019-03-31T08:37:13.136Z,99402.84
2019-03-31T08:39:42.550Z,99404.40
2019-03-31T08:42:11.903Z,99402.53
2019-03-31T08:44:41.293Z,99401.07
2019-03-31T08:47:10.924Z,99402.58
2019-03-31T08:49:40.287Z,99403.16
2019-03-31T08:52:09.707Z,99398.94
2019-03-31T08:54:39.063Z,99404.77
2019-03-31T08:57:08.419Z,99405.27
2019-03-31T08:59:37.779Z,99404.31
2019-03-31T09:02:24.994Z,99410.00
2019-03-31T09:04:54.385Z,99402.64
2019-03-31T09:07:23.726Z,99404.41
2019-03-31T09:09:53.094Z,99399.80
2019-03-31T09:12:22.528Z,99404.93
2019-03-31T09:14:51.920Z,99404.38
2019-03-31T09:17:21.263Z,99401.34
2019-03-31T09:19:50.620Z,99406.42
2019-03-31T09:22:20.024Z,99397.69
2019-03-31T09:24:49.449Z,99396.50
2019-03-31T09:27:18.829Z,99399.95
2019-03-31T09:29:48.228Z,99401.95
2019-03-31T09:32:17.603Z,99402.23
2019-03-31T09:34:46.969Z,99399.60
2019-03-31T09:37:16.310Z,99402.35
2019-03-31T09:39:45.688Z,99402.50
2019-03-31T09:42:15.037Z,99403.22
2019-03-31T09:44:44.387Z,99401.47
2019-03-31T09:47:13.767Z,99393.05
2019-03-31T09:49:43.114Z,99397.12
2019-03-31T09:52:12.485Z,99396.45
2019-03-31T09:54:41.830Z,99398.84
2019-03-31T09:57:11.180Z,99393.03
2019-03-31T09:59:40.550Z,99392.34
2019-03-31T10:02:09.899Z,99397.22
2019-03-31T10:04:39.281Z,99390.08
2019-03-31T10:07:08.626Z,99393.84
2019-03-31T10:09:38.061Z,99379.41
2019-03-31T10:12:07.431Z,99376.36
2019-03-31T10:14:36.778Z,99380.45
2019-03-31T10:17:07.052Z,99370.81
2019-03-31T10:19:36.407Z,99371.14
2019-03-31T10:22:05.760Z,99373.02
2019-03-31T10:24:35.145Z,99370.26
2019-03-31T10:27:04.510Z,99373.68
2019-03-31T10:29:33.893Z,99370.52
2019-03-31T10:32:03.241Z,99363.73
2019-03-31T10:34:32.590Z,99367.39
2019-03-31T10:37:01.954Z,99364.56
2019-03-31T10:39:31.284Z,99360.03
2019-03-31T10:42:00.676Z,99361.77
2019-03-31T10:44:30.036Z,99363.88
2019-03-31T10:46:59.393Z,99358.64
2019-03-31T10:49:28.751Z,99354.08
2019-03-31T10:51:58.136Z,99348.59
2019-03-31T10:54:27.516Z,99345.19
2019-03-31T10:56:56.881Z,99349.69
2019-03-31T10:59:26.251Z,99349.88
2019-03-31T11:01:55.637Z,99350.91
2019-03-31T11:04:24.983Z,99353.45
2019-03-31T11:06:59.527Z,99345.63
2019-03-31T11:09:25.450Z,99346.50
2019-03-31T11:11:54.787Z,99341.84
2019-03-31T11:14:24.182Z,99345.78
2019-03-31T11:16:53.525Z,99341.66
2019-03-31T11:19:22.898Z,99341.17
2019-03-31T11:21:53.889Z,99331.88
2019-03-31T11:24:23.231Z,99328.14
2019-03-31T11:26:52.589Z,99336.29
2019-03-31T11:29:21.917Z,99331.25
2019-03-31T11:31:51.302Z,99334.84
2019-03-31T11:34:20.646Z,99329.39
2019-03-31T11:36:49.983Z,99330.91
2019-03-31T11:39:19.354Z,99329.31
2019-03-31T11:41:48.695Z,99315.70
2019-03-31T11:44:18.094Z,99318.92
2019-03-31T11:46:47.439Z,99312.16
2019-03-31T11:49:16.793Z,99318.23
2019-03-31T11:51:46.147Z,99312.50
2019-03-31T11:54:15.495Z,99316.78
2019-03-31T11:56:44.873Z,99314.13
2019-03-31T11:59:14.397Z,99314.53
2019-03-31T12:01:43.822Z,99314.70
2019-03-31T12:04:13.204Z,99305.18
2019-03-31T12:06:42.554Z,99296.33
2019-03-31T12:09:12.062Z,99299.43
2019-03-31T12:11:41.411Z,99297.55
2019-03-31T12:14:10.741Z,99295.70
2019-03-31T12:16:40.095Z,99288.80
2019-03-31T12:19:09.441Z,99292.52
2019-03-31T12:21:39.299Z,99292.01
2019-03-31T12:24:08.643Z,99286.73
2019-03-31T12:26:38.006Z,99285.59
2019-03-31T12:29:07.366Z,99283.25
2019-03-31T12:31:36.708Z,99280.31
2019-03-31T12:34:06.084Z,99279.45
2019-03-31T12:36:35.805Z,99278.48
2019-03-31T12:39:08.835Z,99279.00
2019-03-31T12:41:38.184Z,99281.30
2019-03-31T12:44:07.534Z,99274.28
2019-03-31T12:46:36.906Z,99275.27
2019-03-31T12:49:06.318Z,99274.93
2019-03-31T12:51:35.660Z,99262.37
2019-03-31T12:54:05.036Z,99263.63
2019-03-31T12:56:34.379Z,99261.59
2019-03-31T12:59:03.778Z,99253.40
2019-03-31T13:01:33.199Z,99258.84
2019-03-31T13:04:02.585Z,99251.36
2019-03-31T13:06:31.946Z,99252.08
2019-03-31T13:09:01.293Z,99248.02
2019-03-31T13:11:30.663Z,99242.48
2019-03-31T13:14:00.011Z,99242.27
2019-03-31T13:16:29.351Z,99236.27
2019-03-31T13:18:58.710Z,99229.94
2019-03-31T13:21:28.050Z,99227.73
2019-03-31T13:23:57.432Z,99222.66
2019-03-31T13:26:26.847Z,99230.52
2019-03-31T13:28:56.184Z,99228.97
2019-03-31T13:31:25.541Z,99230.22
2019-03-31T13:33:54.895Z,99224.55
2019-03-31T13:36:24.275Z,99218.07
2019-03-31T13:38:53.626Z,99216.82
2019-03-31T13:41:22.970Z,99215.02
2019-03-31T13:43:52.320Z,99217.81
2019-03-31T13:46:21.694Z,99220.15
2019-03-31T13:48:51.034Z,99213.03
2019-03-31T13:51:20.385Z,99213.97
2019-03-31T13:53:49.733Z,99207.23
2019-03-31T13:56:19.789Z,99210.41
2019-03-31T13:58:52.617Z,99204.78
2019-03-31T14:01:20.563Z,99200.59
2019-03-31T14:03:49.888Z,99203.59
2019-03-31T14:06:19.609Z,99193.83
2019-03-31T14:08:48.968Z,99199.17
2019-03-31T14:11:21.491Z,99195.28
2019-03-31T14:13:49.423Z,99188.50
2019-03-31T14:16:18.777Z,99188.60
2019-03-31T14:18:48.124Z,99196.28
2019-03-31T14:21:17.503Z,99188.35
2019-03-31T14:23:46.839Z,99193.47
2019-03-31T14:26:16.208Z,99191.05
2019-03-31T14:28:45.568Z,99192.44
2019-03-31T14:31:14.931Z,99192.94
2019-03-31T14:33:44.282Z,99196.29
2019-03-31T14:36:13.629Z,99187.55
2019-03-31T14:38:42.988Z,99184.13
2019-03-31T14:41:12.426Z,99173.53
2019-03-31T14:43:41.785Z,99177.59
2019-03-31T14:46:11.153Z,99182.39
2019-03-31T14:48:40.500Z,99182.61
2019-03-31T14:51:09.900Z,99182.02
2019-03-31T14:53:39.251Z,99185.87
2019-03-31T14:56:08.605Z,99179.52
2019-03-31T14:58:37.981Z,99178.77
2019-03-31T15:01:07.403Z,99172.56
2019-03-31T15:03:36.790Z,99171.80
2019-03-31T15:06:06.139Z,99168.31
2019-03-31T15:08:35.491Z,99172.39
2019-03-31T15:11:04.859Z,99173.52
2019-03-31T15:13:34.195Z,99165.56
2019-03-31T15:16:03.651Z,99164.46
2019-03-31T15:18:33.071Z,99163.57
2019-03-31T15:21:02.456Z,99160.94
2019-03-31T15:23:31.816Z,99156.41
2019-03-31T15:26:01.153Z,99151.49
2019-03-31T15:28:30.527Z,99146.19
2019-03-31T15:30:59.880Z,99148.11
2019-03-31T15:33:29.230Z,99145.30
2019-03-31T15:35:58.641Z,99156.02
2019-03-31T15:38:28.765Z,99151.16
2019-03-31T15:40:58.121Z,99148.41
2019-03-31T15:43:27.459Z,99142.95
2019-03-31T15:45:56.802Z,99151.86
2019-03-31T15:48:26.168Z,99145.63
2019-03-31T15:50:55.527Z,99151.46
2019-03-31T15:53:24.906Z,99147.75
2019-03-31T15:55:54.245Z,99140.11
2019-03-31T15:58:23.627Z,99144.66
2019-03-31T16:00:53.043Z,99146.42
2019-03-31T16:03:22.405Z,99148.28
2019-03-31T16:05:51.787Z,99140.80
2019-03-31T16:08:21.134Z,99146.95
2019-03-31T16:10:50.473Z,99147.48
2019-03-31T16:13:19.861Z,99138.09
2019-03-31T16:15:49.292Z,99147.87
2019-03-31T16:18:18.692Z,99143.86
2019-03-31T16:20:48.044Z,99145.55
2019-03-31T16:23:17.400Z,99137.72
2019-03-31T16:25:59.694Z,99141.34
2019-03-31T16:28:29.050Z,99142.02
2019-03-31T16:30:58.404Z,99138.99
2019-03-31T16:33:27.832Z,99141.38
2019-03-31T16:35:57.197Z,99145.00
2019-03-31T16:38:26.544Z,99132.95
2019-03-31T16:40:55.970Z,99131.77
2019-03-31T16:43:25.372Z,99130.78
2019-03-31T16:45:54.748Z,99133.27
2019-03-31T16:48:24.097Z,99136.28
2019-03-31T16:50:53.435Z,99136.19
2019-03-31T16:53:22.804Z,99137.70
2019-03-31T16:55:52.156Z,99140.66
2019-03-31T16:58:21.545Z,99135.98
2019-03-31T17:00:50.876Z,99142.69
2019-03-31T17:03:20.224Z,99143.19
2019-03-31T17:05:49.927Z,99139.50
2019-03-31T17:08:19.262Z,99148.72
2019-03-31T17:10:48.628Z,99144.85
2019-03-31T17:13:17.985Z,99143.87
2019-03-31T17:15:47.334Z,99149.95
2019-03-31T17:18:16.694Z,99149.62
2019-03-31T17:20:46.075Z,99154.84
2019-03-31T17:23:15.465Z,99152.53
2019-03-31T17:25:44.806Z,99153.65
2019-03-31T17:28:14.137Z,99156.83
2019-03-31T17:30:43.517Z,99159.56
2019-03-31T17:33:12.868Z,99165.61
2019-03-31T17:35:42.247Z,99155.95
2019-03-31T17:38:11.719Z,99155.80
2019-03-31T17:40:41.351Z,99161.30
2019-03-31T17:43:10.738Z,99163.73
2019-03-31T17:45:40.094Z,99163.27
2019-03-31T17:48:09.477Z,99158.50
2019-03-31T17:50:38.826Z,99169.78
2019-03-31T17:53:08.189Z,99170.81
2019-03-31T17:55:37.569Z,99175.20
2019-03-31T17:58:06.970Z,99169.42
2019-03-31T18:00:36.433Z,99175.72
2019-03-31T18:03:05.792Z,99171.25
2019-03-31T18:05:35.148Z,99175.32
2019-03-31T18:08:04.512Z,99179.06
2019-03-31T18:10:33.932Z,99184.98
2019-03-31T18:13:03.307Z,99188.02
2019-03-31T18:15:32.918Z,99193.19
2019-03-31T18:18:02.262Z,99197.73
2019-03-31T18:20:31.647Z,99189.19
2019-03-31T18:23:01.048Z,99198.30
2019-03-31T18:25:30.429Z,99199.08
2019-03-31T18:27:59.770Z,99203.95
2019-03-31T18:30:29.129Z,99209.23
2019-03-31T18:32:58.511Z,99221.33
2019-03-31T18:35:27.862Z,99225.48
2019-03-31T18:37:57.330Z,99227.27
2019-03-31T18:40:34.772Z,99229.44
2019-03-31T18:42:57.840Z,99238.84
2019-03-31T18:45:27.216Z,99239.45
2019-03-31T18:47:56.558Z,99247.22
2019-03-31T18:50:25.945Z,99253.67
2019-03-31T18:52:55.299Z,99257.48
2019-03-31T18:55:32.202Z,99261.66
2019-03-31T18:58:03.200Z,99264.60
2019-03-31T19:00:47.141Z,99264.88
2019-03-31T19:03:30.474Z,99276.33
2019-03-31T19:06:11.867Z,99282.79
2019-03-31T19:08:47.273Z,99292.31
2019-03-31T19:11:31.142Z,99290.31
2019-03-31T19:14:03.006Z,99298.32
2019-03-31T19:16:42.796Z,99296.89
2019-03-31T19:19:29.896Z,99299.83
2019-03-31T19:22:04.853Z,99299.27
2019-03-31T19:24:53.678Z,99306.81
2019-03-31T19:27:24.713Z,99305.50
2019-03-31T19:30:11.736Z,99307.61
2019-03-31T19:32:55.772Z,99309.53
2019-03-31T19:35:26.778Z,99309.89
2019-03-31T19:37:58.901Z,99318.33
2019-03-31T19:40:29.179Z,99320.52
2019-03-31T19:42:58.329Z,99320.67
2019-03-31T19:45:45.571Z,99323.78
2019-03-31T19:48:26.802Z,99325.80
2019-03-31T19:50:57.809Z,99330.30
2019-03-31T19:53:46.389Z,99323.75
2019-03-31T19:56:23.065Z,99326.77
2019-03-31T19:59:09.973Z,99330.40
2019-03-31T20:01:43.440Z,99332.80
2019-03-31T20:04:30.383Z,99334.62
2019-03-31T20:07:01.382Z,99336.91
2019-03-31T20:09:38.340Z,99334.62
2019-03-31T20:12:18.341Z,99338.49
2019-03-31T20:15:05.184Z,99345.26
2019-03-31T20:17:41.904Z,99346.09
2019-03-31T20:20:28.889Z,99344.04
2019-03-31T20:23:02.764Z,99346.79
2019-03-31T20:25:31.893Z,99348.52
2019-03-31T20:28:08.588Z,99358.25
2019-03-31T20:30:57.474Z,99359.02
2019-03-31T20:33:35.657Z,99354.38
2019-03-31T20:36:06.652Z,99356.58
2019-03-31T20:38:43.466Z,99356.61
2019-03-31T20:41:23.236Z,99357.34
2019-03-31T20:43:55.408Z,99356.11
2019-03-31T20:46:24.035Z,99369.55
2019-03-31T20:48:53.675Z,99355.90
2019-03-31T20:51:23.056Z,99359.98
2019-03-31T20:53:52.412Z,99364.41
2019-03-31T20:56:21.784Z,99360.99
2019-03-31T20:58:51.150Z,99364.59
2019-03-31T21:01:20.495Z,99358.95
2019-03-31T21:03:49.868Z,99357.52
2019-03-31T21:06:19.226Z,99363.91
2019-03-31T21:08:48.622Z,99365.28
2019-03-31T21:11:17.955Z,99363.07
2019-03-31T21:13:47.308Z,99360.00
2019-03-31T21:16:16.687Z,99369.11
2019-03-31T21:18:46.055Z,99367.53
2019-03-31T21:21:15.422Z,99364.95
2019-03-31T21:23:44.787Z,99374.44
2019-03-31T21:26:14.137Z,99378.61
2019-03-31T21:28:43.500Z,99371.86
2019-03-31T21:31:12.936Z,99368.91
2019-03-31T21:33:42.461Z,99374.20
2019-03-31T21:36:11.821Z,99374.18
2019-03-31T21:38:41.241Z,99371.22
2019-03-31T21:41:13.932Z,99375.91
2019-03-31T21:43:41.696Z,99376.52
2019-03-31T21:46:11.066Z,99377.98
2019-03-31T21:48:40.423Z,99380.45
2019-03-31T21:51:10.531Z,99376.79
2019-03-31T21:53:39.909Z,99382.91
2019-03-31T21:56:09.261Z,99376.41
2019-03-31T21:58:38.663Z,99378.48
2019-03-31T22:01:08.376Z,99372.86
2019-03-31T22:03:37.737Z,99379.47
2019-03-31T22:06:07.132Z,99377.74
2019-03-31T22:08:36.471Z,99377.25
2019-03-31T22:11:05.852Z,99381.79
2019-03-31T22:13:35.209Z,99376.02
2019-03-31T22:16:04.570Z,99372.71
2019-03-31T22:18:33.940Z,99376.16
2019-03-31T22:21:03.311Z,99378.86
2019-03-31T22:23:32.689Z,99380.80
2019-03-31T22:26:02.086Z,99379.06
2019-03-31T22:28:31.477Z,99376.95
2019-03-31T22:31:00.855Z,99372.43
2019-03-31T22:33:30.208Z,99370.84
2019-03-31T22:36:16.797Z,99376.58
2019-03-31T22:38:46.147Z,99379.28
2019-03-31T22:41:15.499Z,99374.99
2019-03-31T22:43:44.873Z,99375.20
2019-03-31T22:46:14.214Z,99375.06
2019-03-31T22:48:43.637Z,99374.69
2019-03-31T22:51:12.995Z,99372.09
2019-03-31T22:53:42.337Z,99373.33
2019-03-31T22:56:11.685Z,99364.73
2019-03-31T22:58:41.112Z,99368.41
2019-03-31T23:01:10.455Z,99370.59
2019-03-31T23:03:39.814Z,99374.63
2019-03-31T23:06:09.192Z,99373.28
2019-03-31T23:08:38.535Z,99371.81
2019-03-31T23:11:07.917Z,99371.97
2019-03-31T23:13:37.266Z,99369.38
2019-03-31T23:16:06.658Z,99377.34
2019-03-31T23:18:36.026Z,99373.05
2019-03-31T23:21:05.378Z,99373.89
2019-03-31T23:23:34.754Z,99371.84
2019-03-31T23:26:04.100Z,99373.41
2019-03-31T23:28:33.472Z,99368.45
2019-03-31T23:31:03.792Z,99372.03
2019-03-31T23:33:33.261Z,99366.21
2019-03-31T23:36:02.644Z,99370.23
2019-03-31T23:38:32.260Z,99371.34
2019-03-31T23:41:01.603Z,99373.63
2019-03-31T23:43:30.958Z,99376.52
2019-03-31T23:46:01.959Z,99366.40
2019-03-31T23:48:31.358Z,99366.02
2019-03-31T23:51:00.701Z,99369.27
2019-03-31T23:53:30.078Z,99372.45
2019-03-31T23:55:59.443Z,99376.87
2019-03-31T23:58:28.786Z,99364.92
